createdAt,value
2018-07-06T00:02:40.116Z,101698.88
2018-07-06T00:05:25.683Z,101706.67
2018-07-06T00:08:11.637Z,101699.20
2018-07-06T00:10:57.153Z,101698.55
2018-07-06T00:13:37.474Z,101699.31
2018-07-06T00:16:23.379Z,101693.91
2018-07-06T00:19:09.259Z,101696.23
2018-07-06T00:21:54.739Z,101700.16
2018-07-06T00:24:40.938Z,101694.75
2018-07-06T00:27:26.725Z,101703.02
2018-07-06T00:30:12.822Z,101695.75
2018-07-06T00:32:58.362Z,101699.03
2018-07-06T00:35:44.196Z,101703.06
2018-07-06T00:38:29.696Z,101699.50
2018-07-06T00:41:15.367Z,101696.95
2018-07-06T00:44:00.588Z,101703.00
2018-07-06T00:46:46.143Z,101698.39
2018-07-06T00:49:31.449Z,101692.64
2018-07-06T00:52:17.030Z,101697.63
2018-07-06T00:55:02.393Z,101692.84
2018-07-06T00:57:53.565Z,101703.76
2018-07-06T01:00:39.067Z,101694.48
2018-07-06T01:03:24.833Z,101698.89
2018-07-06T01:06:10.286Z,101700.92
2018-07-06T01:08:56.307Z,101705.67
2018-07-06T01:11:42.003Z,101710.53
2018-07-06T01:14:27.793Z,101713.33
2018-07-06T01:17:16.556Z,101716.66
2018-07-06T01:20:02.307Z,101715.66
2018-07-06T01:22:42.085Z,101720.64
2018-07-06T01:25:27.966Z,101720.45
2018-07-06T01:28:13.359Z,101727.22
2018-07-06T01:30:59.445Z,101722.55
2018-07-06T01:33:44.972Z,101726.69
2018-07-06T01:36:30.927Z,101726.23
2018-07-06T01:39:16.199Z,101730.56
2018-07-06T01:42:02.080Z,101737.14
2018-07-06T01:44:47.492Z,101736.03
2018-07-06T01:47:27.934Z,101732.13
2018-07-06T01:50:13.408Z,101734.92
2018-07-06T01:53:05.346Z,101737.11
2018-07-06T01:55:51.004Z,101739.09
2018-07-06T01:58:36.949Z,101734.95
2018-07-06T02:01:16.763Z,101737.17
2018-07-06T02:04:02.664Z,101734.92
2018-07-06T02:06:48.500Z,101735.53
2018-07-06T02:09:34.223Z,101736.65
2018-07-06T02:12:19.903Z,101729.59
2018-07-06T02:15:06.529Z,101734.38
2018-07-06T02:17:52.141Z,101730.77
2018-07-06T02:20:37.908Z,101736.07
2018-07-06T02:23:23.350Z,101737.17
2018-07-06T02:26:09.372Z,101741.92
2018-07-06T02:28:55.051Z,101738.09
2018-07-06T02:31:35.282Z,101732.31
2018-07-06T02:34:21.000Z,101736.91
2018-07-06T02:37:07.056Z,101736.22
2018-07-06T02:39:52.675Z,101741.84
2018-07-06T02:42:32.833Z,101744.22
2018-07-06T02:45:18.539Z,101740.71
2018-07-06T02:48:04.416Z,101739.58
2018-07-06T02:50:50.264Z,101736.70
2018-07-06T02:53:36.307Z,101749.58
2018-07-06T02:56:21.979Z,101750.75
2018-07-06T02:59:07.830Z,101746.35
2018-07-06T03:01:55.465Z,101747.97
2018-07-06T03:04:41.704Z,101752.44
2018-07-06T03:07:27.394Z,101748.97
2018-07-06T03:10:13.168Z,101758.13
2018-07-06T03:12:58.752Z,101755.47
2018-07-06T03:15:38.947Z,101765.59
2018-07-06T03:18:24.666Z,101769.93
2018-07-06T03:21:10.699Z,101762.95
2018-07-06T03:23:56.609Z,101763.80
2018-07-06T03:26:42.803Z,101761.33
2018-07-06T03:29:28.568Z,101767.11
2018-07-06T03:32:14.641Z,101761.05
2018-07-06T03:35:00.278Z,101769.06
2018-07-06T03:37:46.065Z,101767.75
2018-07-06T03:40:31.724Z,101767.41
2018-07-06T03:43:17.820Z,101766.52
2018-07-06T03:46:09.479Z,101768.22
2018-07-06T03:48:55.340Z,101771.22
2018-07-06T03:51:40.819Z,101770.83
2018-07-06T03:54:26.812Z,101769.83
2018-07-06T03:57:12.514Z,101772.66
2018-07-06T03:59:58.591Z,101776.00
2018-07-06T04:02:44.391Z,101770.45
2018-07-06T04:05:30.276Z,101775.25
2018-07-06T04:08:16.032Z,101776.82
2018-07-06T04:11:02.059Z,101782.58
2018-07-06T04:13:47.546Z,101777.53
2018-07-06T04:16:33.496Z,101775.55
2018-07-06T04:19:19.403Z,101782.50
2018-07-06T04:21:59.773Z,101780.16
2018-07-06T04:24:45.617Z,101782.00
2018-07-06T04:27:25.862Z,101786.33
2018-07-06T04:30:11.608Z,101784.23
2018-07-06T04:32:51.777Z,101782.33
2018-07-06T04:35:37.356Z,101783.03
2018-07-06T04:38:23.148Z,101784.89
2018-07-06T04:41:08.921Z,101776.73
2018-07-06T04:43:49.193Z,101784.29
2018-07-06T04:46:35.147Z,101781.89
2018-07-06T04:49:21.174Z,101791.78
2018-07-06T04:52:06.868Z,101789.70
2018-07-06T04:54:53.000Z,101789.94
2018-07-06T04:57:38.703Z,101793.06
2018-07-06T05:00:24.619Z,101792.64
2018-07-06T05:03:10.327Z,101792.86
2018-07-06T05:05:56.451Z,101788.78
2018-07-06T05:08:42.088Z,101796.02
2018-07-06T05:11:27.889Z,101796.45
2018-07-06T05:14:13.458Z,101799.48
2018-07-06T05:16:53.782Z,101795.58
2018-07-06T05:19:39.253Z,101805.04
2018-07-06T05:22:25.112Z,101807.67
2018-07-06T05:25:10.817Z,101806.62
2018-07-06T05:27:56.792Z,101814.80
2018-07-06T05:30:42.246Z,101814.70
2018-07-06T05:33:28.118Z,101822.28
2018-07-06T05:36:13.804Z,101821.02
2018-07-06T05:38:59.835Z,101823.02
2018-07-06T05:41:45.439Z,101822.77
2018-07-06T05:44:31.081Z,101829.38
2018-07-06T05:47:17.108Z,101834.30
2018-07-06T05:50:03.091Z,101843.31
2018-07-06T05:52:48.781Z,101842.09
2018-07-06T05:55:34.883Z,101849.43
2018-07-06T05:58:20.443Z,101848.08
2018-07-06T06:01:01.799Z,101856.20
2018-07-06T06:03:48.037Z,101853.69
2018-07-06T06:06:34.116Z,101853.03
2018-07-06T06:09:01.037Z,101854.13
2018-07-06T06:11:29.880Z,101855.17
2018-07-06T06:13:59.077Z,101857.40
2018-07-06T06:16:27.875Z,101855.89
2018-07-06T06:18:56.637Z,101858.55
2018-07-06T06:21:25.747Z,101859.17
2018-07-06T06:23:54.387Z,101862.50
2018-07-06T06:26:31.620Z,101866.84
2018-07-06T06:29:00.631Z,101873.16
2018-07-06T06:31:29.952Z,101870.70
2018-07-06T06:34:02.401Z,101874.77
2018-07-06T06:36:33.041Z,101881.28
2018-07-06T06:39:04.041Z,101881.73
2018-07-06T06:41:33.315Z,101887.63
2018-07-06T06:44:02.224Z,101880.22
2018-07-06T06:46:31.418Z,101883.20
2018-07-06T06:49:00.385Z,101889.53
2018-07-06T06:51:29.301Z,101889.27
2018-07-06T06:53:58.965Z,101893.41
2018-07-06T06:56:27.904Z,101896.00
2018-07-06T06:58:57.268Z,101895.67
2018-07-06T07:01:26.455Z,101892.13
2018-07-06T07:03:55.645Z,101890.69
2018-07-06T07:06:24.760Z,101893.33
2018-07-06T07:08:54.160Z,101899.38
2018-07-06T07:11:22.992Z,101900.80
2018-07-06T07:13:51.881Z,101907.91
2018-07-06T07:16:21.135Z,101902.14
2018-07-06T07:18:50.064Z,101903.29
2018-07-06T07:21:19.056Z,101897.95
2018-07-06T07:23:48.158Z,101898.42
2018-07-06T07:26:17.077Z,101906.82
2018-07-06T07:28:45.970Z,101904.14
2018-07-06T07:31:15.424Z,101906.90
2018-07-06T07:33:44.385Z,101916.98
2018-07-06T07:36:13.198Z,101915.89
2018-07-06T07:38:42.611Z,101923.95
2018-07-06T07:41:11.388Z,101929.11
2018-07-06T07:43:40.235Z,101928.41
2018-07-06T07:46:09.378Z,101921.81
2018-07-06T07:48:38.318Z,101926.02
2018-07-06T07:51:53.820Z,101922.66
2018-07-06T07:54:26.793Z,101923.61
2018-07-06T07:56:57.283Z,101929.55
2018-07-06T07:59:27.920Z,101933.17
2018-07-06T08:01:57.641Z,101935.68
2018-07-06T08:04:26.583Z,101936.88
2018-07-06T08:06:56.198Z,101935.18
2018-07-06T08:09:25.747Z,101939.59
2018-07-06T08:11:58.088Z,101947.69
2018-07-06T08:14:27.461Z,101949.59
2018-07-06T08:16:56.309Z,101951.32
2018-07-06T08:19:25.166Z,101948.29
2018-07-06T08:21:54.043Z,101954.70
2018-07-06T08:24:22.816Z,101950.05
2018-07-06T08:26:51.749Z,101949.55
2018-07-06T08:29:20.663Z,101956.88
2018-07-06T08:31:49.433Z,101957.31
2018-07-06T08:34:35.498Z,101958.89
2018-07-06T08:37:51.242Z,101962.45
2018-07-06T08:40:21.557Z,101971.14
2018-07-06T08:42:52.410Z,101979.52
2018-07-06T08:45:27.949Z,101979.34
2018-07-06T08:47:56.589Z,101981.58
2018-07-06T08:50:25.459Z,101986.77
2018-07-06T08:52:55.344Z,101991.81
2018-07-06T08:55:24.534Z,101989.14
2018-07-06T08:57:54.754Z,101992.13
2018-07-06T09:00:23.650Z,101994.84
2018-07-06T09:02:52.647Z,101989.91
2018-07-06T09:05:22.549Z,101993.62
2018-07-06T09:07:51.193Z,101996.47
2018-07-06T09:10:19.999Z,101997.45
2018-07-06T09:12:49.753Z,102008.27
2018-07-06T09:15:18.516Z,102003.83
2018-07-06T09:17:47.297Z,102001.33
2018-07-06T09:20:16.691Z,102005.17
2018-07-06T09:22:45.285Z,102005.19
2018-07-06T09:25:14.080Z,102009.81
2018-07-06T09:27:43.195Z,102004.91
2018-07-06T09:30:11.970Z,102011.91
2018-07-06T09:32:40.802Z,102003.95
2018-07-06T09:35:09.896Z,102005.05
2018-07-06T09:37:38.673Z,102006.97
2018-07-06T09:40:08.047Z,102007.06
2018-07-06T09:42:37.377Z,102004.91
2018-07-06T09:45:06.228Z,102006.96
2018-07-06T09:47:34.976Z,102000.39
2018-07-06T09:50:04.079Z,102000.55
2018-07-06T09:52:32.702Z,101994.18
2018-07-06T09:55:01.737Z,102002.59
2018-07-06T09:57:30.851Z,102002.54
2018-07-06T09:59:59.643Z,102001.53
2018-07-06T10:02:28.386Z,102005.94
2018-07-06T10:04:57.466Z,102003.64
2018-07-06T10:07:26.240Z,102007.45
2018-07-06T10:09:55.508Z,102009.70
2018-07-06T10:12:24.688Z,102004.43
2018-07-06T10:14:53.453Z,102006.05
2018-07-06T10:17:22.220Z,102004.28
2018-07-06T10:19:51.335Z,102009.56
2018-07-06T10:22:20.172Z,102013.25
2018-07-06T10:24:48.977Z,102008.88
2018-07-06T10:27:17.972Z,102006.63
2018-07-06T10:29:58.787Z,102011.57
2018-07-06T10:32:28.928Z,102015.41
2018-07-06T10:34:58.480Z,102014.00
2018-07-06T10:37:27.749Z,102016.34
2018-07-06T10:39:57.035Z,102014.69
2018-07-06T10:42:25.739Z,102013.28
2018-07-06T10:44:54.610Z,102023.40
2018-07-06T10:47:23.813Z,102027.93
2018-07-06T10:49:52.676Z,102018.85
2018-07-06T10:52:21.469Z,102023.02
2018-07-06T10:54:50.483Z,102027.58
2018-07-06T10:57:19.149Z,102026.56
2018-07-06T10:59:48.830Z,102020.33
2018-07-06T11:02:17.789Z,102028.92
2018-07-06T11:04:46.584Z,102031.94
2018-07-06T11:07:15.426Z,102027.18
2018-07-06T11:09:44.668Z,102030.11
2018-07-06T11:12:13.464Z,102041.59
2018-07-06T11:14:42.253Z,102034.02
2018-07-06T11:17:11.179Z,102038.30
2018-07-06T11:19:39.810Z,102030.92
2018-07-06T11:22:08.696Z,102043.06
2018-07-06T11:24:38.057Z,102041.25
2018-07-06T11:27:06.656Z,102046.38
2018-07-06T11:29:35.490Z,102043.80
2018-07-06T11:32:04.707Z,102039.73
2018-07-06T11:34:33.575Z,102042.18
2018-07-06T11:37:02.391Z,102047.16
2018-07-06T11:39:31.480Z,102047.48
2018-07-06T11:42:00.298Z,102037.44
2018-07-06T11:44:28.915Z,102034.53
2018-07-06T11:46:58.161Z,102044.96
2018-07-06T11:49:27.008Z,102043.35
2018-07-06T11:51:55.796Z,102043.45
2018-07-06T11:54:25.238Z,102050.23
2018-07-06T11:56:54.012Z,102055.64
2018-07-06T11:59:22.843Z,102049.27
2018-07-06T12:01:52.435Z,102044.02
2018-07-06T12:04:21.383Z,102045.96
2018-07-06T12:06:50.079Z,102045.64
2018-07-06T12:09:19.208Z,102050.87
2018-07-06T12:11:48.071Z,102047.91
2018-07-06T12:14:16.861Z,102048.26
2018-07-06T12:16:46.326Z,102043.61
2018-07-06T12:19:15.074Z,102048.66
2018-07-06T12:21:43.882Z,102053.02
2018-07-06T12:24:13.051Z,102037.05
2018-07-06T12:26:41.819Z,102049.19
2018-07-06T12:29:10.637Z,102038.61
2018-07-06T12:31:39.753Z,102042.86
2018-07-06T12:34:08.543Z,102043.33
2018-07-06T12:36:37.674Z,102046.31
2018-07-06T12:39:06.982Z,102048.03
2018-07-06T12:41:35.636Z,102056.34
2018-07-06T12:44:04.587Z,102049.83
2018-07-06T12:46:33.550Z,102048.27
2018-07-06T12:49:02.755Z,102049.53
2018-07-06T12:51:31.367Z,102039.23
2018-07-06T12:54:00.455Z,102040.28
2018-07-06T12:56:29.286Z,102053.45
2018-07-06T12:58:58.140Z,102044.82
2018-07-06T13:01:27.055Z,102050.27
2018-07-06T13:03:55.865Z,102064.84
2018-07-06T13:06:24.887Z,102067.87
2018-07-06T13:08:53.850Z,102064.51
2018-07-06T13:11:22.647Z,102054.84
2018-07-06T13:13:51.447Z,102051.78
2018-07-06T13:16:20.280Z,102053.66
2018-07-06T13:18:49.139Z,102065.14
2018-07-06T13:21:17.844Z,102065.08
2018-07-06T13:23:47.079Z,102047.72
2018-07-06T13:26:16.012Z,102055.77
2018-07-06T13:28:44.857Z,102061.82
2018-07-06T13:31:13.699Z,102060.25
2018-07-06T13:33:42.471Z,102065.98
2018-07-06T13:36:11.170Z,102058.96
2018-07-06T13:38:40.344Z,102059.42
2018-07-06T13:41:10.767Z,102069.75
2018-07-06T13:43:39.595Z,102068.25
2018-07-06T13:46:08.235Z,102070.22
2018-07-06T13:48:40.420Z,102070.34
2018-07-06T13:51:09.257Z,102070.22
2018-07-06T13:53:38.068Z,102071.20
2018-07-06T13:56:07.059Z,102068.33
2018-07-06T13:58:35.995Z,102070.61
2018-07-06T14:01:04.900Z,102072.86
2018-07-06T14:03:34.177Z,102071.41
2018-07-06T14:06:02.988Z,102068.95
2018-07-06T14:08:31.794Z,102067.54
2018-07-06T14:11:00.751Z,102076.09
2018-07-06T14:13:29.613Z,102076.41
2018-07-06T14:15:58.938Z,102087.06
2018-07-06T14:18:28.144Z,102089.75
2018-07-06T14:20:56.944Z,102088.79
2018-07-06T14:23:26.038Z,102084.59
2018-07-06T14:25:55.431Z,102088.97
2018-07-06T14:28:24.279Z,102087.74
2018-07-06T14:30:53.419Z,102093.58
2018-07-06T14:33:22.504Z,102094.88
2018-07-06T14:35:51.385Z,102099.73
2018-07-06T14:38:20.109Z,102102.45
2018-07-06T14:40:48.988Z,102096.88
2018-07-06T14:43:17.771Z,102104.84
2018-07-06T14:45:48.827Z,102116.52
2018-07-06T14:48:17.610Z,102113.78
2018-07-06T14:50:46.420Z,102110.53
2018-07-06T14:53:15.844Z,102112.92
2018-07-06T14:55:44.626Z,102108.12
2018-07-06T14:58:13.419Z,102108.24
2018-07-06T15:00:43.017Z,102108.67
2018-07-06T15:03:11.962Z,102119.91
2018-07-06T15:05:40.832Z,102116.88
2018-07-06T15:08:09.978Z,102117.66
2018-07-06T15:10:38.801Z,102117.18
2018-07-06T15:13:07.623Z,102126.05
2018-07-06T15:15:36.456Z,102125.34
2018-07-06T15:18:05.448Z,102133.12
2018-07-06T15:20:34.296Z,102126.47
2018-07-06T15:23:03.460Z,102129.39
2018-07-06T15:25:32.272Z,102130.95
2018-07-06T15:28:01.055Z,102133.07
2018-07-06T15:30:30.319Z,102134.39
2018-07-06T15:32:59.123Z,102139.56
2018-07-06T15:35:27.923Z,102140.19
2018-07-06T15:37:57.096Z,102136.89
2018-07-06T15:40:25.895Z,102139.30
2018-07-06T15:42:54.836Z,102143.90
2018-07-06T15:45:30.021Z,102138.31
2018-07-06T15:47:58.851Z,102142.14
2018-07-06T15:50:27.455Z,102145.64
2018-07-06T15:52:56.596Z,102132.89
2018-07-06T15:55:25.379Z,102143.86
2018-07-06T15:57:54.191Z,102140.30
2018-07-06T16:00:23.376Z,102141.73
2018-07-06T16:02:52.212Z,102136.95
2018-07-06T16:05:21.081Z,102130.83
2018-07-06T16:07:50.038Z,102134.14
2018-07-06T16:10:19.205Z,102133.18
2018-07-06T16:12:48.029Z,102133.39
2018-07-06T16:15:17.335Z,102139.00
2018-07-06T16:17:46.164Z,102130.84
2018-07-06T16:20:14.767Z,102133.41
2018-07-06T16:22:43.911Z,102135.97
2018-07-06T16:25:12.704Z,102139.72
2018-07-06T16:27:41.477Z,102139.89
2018-07-06T16:30:10.588Z,102142.56
2018-07-06T16:32:39.416Z,102141.34
2018-07-06T16:35:08.228Z,102147.73
2018-07-06T16:37:37.428Z,102137.03
2018-07-06T16:40:06.327Z,102146.34
2018-07-06T16:42:35.074Z,102139.81
2018-07-06T16:45:04.346Z,102146.93
2018-07-06T16:47:33.513Z,102143.53
2018-07-06T16:50:02.348Z,102146.70
2018-07-06T16:52:31.423Z,102146.06
2018-07-06T16:55:00.300Z,102146.22
2018-07-06T16:57:29.205Z,102153.68
2018-07-06T16:59:58.411Z,102152.97
2018-07-06T17:02:27.198Z,102149.09
2018-07-06T17:04:55.983Z,102150.70
2018-07-06T17:07:25.157Z,102150.92
2018-07-06T17:09:53.941Z,102156.48
2018-07-06T17:12:22.780Z,102156.92
2018-07-06T17:14:51.868Z,102154.91
2018-07-06T17:17:20.639Z,102162.30
2018-07-06T17:19:49.297Z,102158.04
2018-07-06T17:22:18.459Z,102167.09
2018-07-06T17:24:47.563Z,102172.87
2018-07-06T17:27:16.338Z,102172.91
2018-07-06T17:29:45.529Z,102166.80
2018-07-06T17:32:14.412Z,102174.20
2018-07-06T17:34:43.244Z,102172.88
2018-07-06T17:37:12.202Z,102169.24
2018-07-06T17:39:40.991Z,102171.69
2018-07-06T17:42:09.889Z,102175.99
2018-07-06T17:44:38.869Z,102177.88
2018-07-06T17:47:08.042Z,102173.77
2018-07-06T17:49:36.980Z,102180.67
2018-07-06T17:52:06.274Z,102178.34
2018-07-06T17:54:35.052Z,102180.59
2018-07-06T17:57:03.782Z,102185.78
2018-07-06T17:59:32.663Z,102194.04
2018-07-06T18:02:01.459Z,102190.51
2018-07-06T18:04:30.253Z,102186.20
2018-07-06T18:06:59.120Z,102192.39
2018-07-06T18:09:27.963Z,102196.11
2018-07-06T18:11:56.859Z,102205.02
2018-07-06T18:14:26.102Z,102198.47
2018-07-06T18:16:54.978Z,102200.80
2018-07-06T18:19:23.871Z,102203.57
2018-07-06T18:21:52.959Z,102204.63
2018-07-06T18:24:21.761Z,102198.05
2018-07-06T18:26:50.543Z,102206.34
2018-07-06T18:29:19.656Z,102212.00
2018-07-06T18:31:48.467Z,102213.80
2018-07-06T18:34:17.354Z,102218.83
2018-07-06T18:36:46.535Z,102215.58
2018-07-06T18:39:15.496Z,102219.17
2018-07-06T18:41:44.300Z,102227.14
2018-07-06T18:44:13.414Z,102227.20
2018-07-06T18:46:42.263Z,102225.83
2018-07-06T18:49:11.065Z,102225.56
2018-07-06T18:51:40.296Z,102229.86
2018-07-06T18:54:09.063Z,102234.23
2018-07-06T18:56:37.844Z,102229.97
2018-07-06T18:59:07.179Z,102231.85
2018-07-06T19:01:36.896Z,102227.58
2018-07-06T19:04:06.076Z,102224.95
2018-07-06T19:06:35.181Z,102237.80
2018-07-06T19:09:04.787Z,102236.65
2018-07-06T19:11:33.751Z,102239.63
2018-07-06T19:14:02.987Z,102241.14
2018-07-06T19:16:31.743Z,102246.84
2018-07-06T19:19:00.488Z,102246.84
2018-07-06T19:21:29.560Z,102243.27
2018-07-06T19:23:58.390Z,102244.34
2018-07-06T19:26:27.173Z,102248.06
2018-07-06T19:28:56.238Z,102247.45
2018-07-06T19:31:25.014Z,102249.59
2018-07-06T19:33:54.181Z,102254.90
2018-07-06T19:36:23.314Z,102251.13
2018-07-06T19:38:52.124Z,102251.66
2018-07-06T19:41:20.924Z,102262.27
2018-07-06T19:43:50.100Z,102266.28
2018-07-06T19:46:19.099Z,102259.27
2018-07-06T19:48:47.936Z,102263.17
2018-07-06T19:51:17.178Z,102261.79
2018-07-06T19:53:45.935Z,102261.78
2018-07-06T19:56:14.708Z,102268.47
2018-07-06T19:58:43.658Z,102270.73
2018-07-06T20:01:12.301Z,102274.00
2018-07-06T20:03:41.223Z,102275.38
2018-07-06T20:06:10.439Z,102279.56
2018-07-06T20:08:39.336Z,102283.94
2018-07-06T20:11:08.232Z,102280.73
2018-07-06T20:13:37.493Z,102293.03
2018-07-06T20:16:06.317Z,102290.58
2018-07-06T20:18:35.432Z,102289.38
2018-07-06T20:21:04.609Z,102296.28
2018-07-06T20:23:33.394Z,102299.75
2018-07-06T20:26:02.240Z,102297.52
2018-07-06T20:28:31.211Z,102307.25
2018-07-06T20:30:59.823Z,102304.23
2018-07-06T20:33:28.592Z,102305.14
2018-07-06T20:35:57.686Z,102304.98
2018-07-06T20:38:26.539Z,102311.33
2018-07-06T20:40:55.308Z,102304.45
2018-07-06T20:43:24.473Z,102307.09
2018-07-06T20:45:59.288Z,102305.98
2018-07-06T20:48:28.179Z,102304.05
2018-07-06T20:50:57.092Z,102300.38
2018-07-06T20:53:25.880Z,102313.58
2018-07-06T20:55:54.934Z,102308.91
2018-07-06T20:58:24.063Z,102313.31
2018-07-06T21:00:52.916Z,102310.77
2018-07-06T21:03:21.732Z,102308.28
2018-07-06T21:05:50.652Z,102313.66
2018-07-06T21:08:19.271Z,102310.63
2018-07-06T21:10:48.371Z,102313.17
2018-07-06T21:13:17.385Z,102316.58
2018-07-06T21:15:46.167Z,102316.23
2018-07-06T21:18:15.062Z,102321.98
2018-07-06T21:20:43.831Z,102320.98
2018-07-06T21:23:12.599Z,102318.23
2018-07-06T21:25:42.267Z,102318.17
2018-07-06T21:28:11.100Z,102320.46
2018-07-06T21:30:39.956Z,102325.25
2018-07-06T21:33:09.127Z,102323.41
2018-07-06T21:35:38.208Z,102317.16
2018-07-06T21:38:06.880Z,102323.45
2018-07-06T21:40:35.828Z,102321.52
2018-07-06T21:43:04.623Z,102319.89
2018-07-06T21:45:39.639Z,102324.38
2018-07-06T21:48:08.627Z,102324.40
2018-07-06T21:50:37.440Z,102322.67
2018-07-06T21:53:06.718Z,102317.07
2018-07-06T21:55:35.520Z,102320.02
2018-07-06T21:58:04.336Z,102312.84
2018-07-06T22:00:38.109Z,102315.48
2018-07-06T22:03:08.134Z,102312.81
2018-07-06T22:05:37.572Z,102321.19
2018-07-06T22:08:07.360Z,102323.58
2018-07-06T22:10:36.761Z,102321.97
2018-07-06T22:13:06.291Z,102317.87
2018-07-06T22:15:44.058Z,102327.36
2018-07-06T22:18:14.387Z,102321.19
2018-07-06T22:20:44.558Z,102319.81
2018-07-06T22:23:14.111Z,102323.33
2018-07-06T22:25:43.114Z,102323.81
2018-07-06T22:28:11.927Z,102324.83
2018-07-06T22:30:41.100Z,102327.23
2018-07-06T22:33:09.990Z,102321.98
2018-07-06T22:35:38.796Z,102324.27
2018-07-06T22:38:07.980Z,102327.47
2018-07-06T22:40:36.749Z,102325.97
2018-07-06T22:43:05.614Z,102321.38
2018-07-06T22:45:40.895Z,102318.31
2018-07-06T22:48:09.664Z,102318.78
2018-07-06T22:50:38.431Z,102317.63
2018-07-06T22:53:07.672Z,102316.03
2018-07-06T22:55:37.443Z,102314.53
2018-07-06T22:58:06.305Z,102317.18
2018-07-06T23:00:35.284Z,102314.20
2018-07-06T23:03:05.359Z,102313.97
2018-07-06T23:05:34.185Z,102310.30
2018-07-06T23:08:03.612Z,102311.34
2018-07-06T23:10:32.475Z,102317.05
2018-07-06T23:13:01.404Z,102314.20
2018-07-06T23:15:30.143Z,102316.25
2018-07-06T23:17:58.927Z,102312.92
2018-07-06T23:20:27.631Z,102316.34
2018-07-06T23:23:14.360Z,102315.09
2018-07-06T23:25:44.269Z,102311.44
2018-07-06T23:28:13.247Z,102313.03
2018-07-06T23:30:42.465Z,102318.20
2018-07-06T23:33:11.778Z,102318.97
2018-07-06T23:35:40.678Z,102318.63
2018-07-06T23:38:09.942Z,102314.60
2018-07-06T23:40:38.704Z,102317.81
2018-07-06T23:43:07.617Z,102326.95
2018-07-06T23:45:42.795Z,102324.43
2018-07-06T23:48:11.976Z,102328.98
2018-07-06T23:50:40.745Z,102325.30
2018-07-06T23:53:09.743Z,102329.44
2018-07-06T23:55:38.524Z,102331.46
2018-07-06T23:58:07.294Z,102321.33
